Time;durP1;ratioP1;P1;durP2;ratioP2;P2;SDS_P1;SDS_P2;PMS_P1;PMS_P2;Temp;Humidity;BMP_temperature;BMP_pressure;BME280_temperature;BME280_humidity;BME280_pressure;Samples;Min_cycle;Max_cycle;Signal;HPM_P1;HPM_P2
2020/12/09 00:00:45;;;;;;;78.43;40.13;;;1.90;99.90;;;-143.32;100.00;97702.28;4861370;29;20465;-91
2020/12/09 00:03:13;;;;;;;79.80;39.63;;;1.90;99.90;;;-143.32;100.00;97728.88;4861887;29;20451;-92
2020/12/09 00:05:40;;;;;;;83.87;41.30;;;2.00;99.90;;;-143.32;100.00;97690.03;4861331;29;20446;-93
2020/12/09 00:08:08;;;;;;;85.20;43.10;;;2.00;99.90;;;-143.32;100.00;97671.59;4861330;29;20461;-91
2020/12/09 00:10:35;;;;;;;83.20;42.23;;;2.00;99.90;;;-143.32;100.00;97716.63;4861842;29;20851;-91
2020/12/09 00:13:02;;;;;;;80.70;41.87;;;2.00;99.90;;;-143.32;100.00;97726.84;4862014;29;20860;-90
2020/12/09 00:15:28;;;;;;;79.53;39.83;;;2.00;99.90;;;-143.32;100.00;97696.16;4861303;29;20795;-92
2020/12/09 00:17:55;;;;;;;86.83;41.40;;;2.10;99.90;;;-143.32;100.00;97700.25;4861877;29;20595;-92
2020/12/09 00:20:23;;;;;;;77.30;39.63;;;2.20;99.90;;;-143.32;100.00;97675.69;4862138;29;20914;-92
2020/12/09 00:22:52;;;;;;;80.10;40.43;;;2.10;99.90;;;-143.32;100.00;97677.75;4861381;29;20453;-94
2020/12/09 00:25:19;;;;;;;88.33;42.90;;;2.20;99.90;;;-143.32;100.00;97735.03;4861816;29;20541;-92
2020/12/09 00:27:47;;;;;;;79.60;41.80;;;2.20;99.90;;;-143.32;100.00;97673.66;4861780;29;20482;-94
2020/12/09 00:30:14;;;;;;;75.30;41.57;;;2.20;99.90;;;-143.32;100.00;97665.47;4861272;29;20454;-91
2020/12/09 00:32:41;;;;;;;77.73;40.50;;;2.30;99.90;;;-143.32;100.00;97724.81;4861337;29;20454;-92
2020/12/09 00:35:08;;;;;;;74.23;39.30;;;2.30;99.90;;;-143.32;100.00;97647.06;4862223;29;20470;-92
2020/12/09 00:37:36;;;;;;;71.20;39.90;;;2.30;99.90;;;-143.32;100.00;97622.50;4861190;29;20954;-92
2020/12/09 00:40:04;;;;;;;81.37;40.00;;;2.30;99.90;;;-143.32;100.00;97690.03;4863439;29;21000;-91
2020/12/09 00:42:32;;;;;;;78.17;40.80;;;2.30;99.90;;;-143.32;100.00;97724.81;4865805;29;20534;-92
2020/12/09 00:44:59;;;;;;;73.07;40.10;;;2.10;99.90;;;-143.32;100.00;97714.56;4865470;29;20510;-92
2020/12/09 00:47:26;;;;;;;78.63;40.00;;;2.10;99.90;;;-143.32;100.00;97735.03;4864741;29;20478;-93
2020/12/09 00:52:42;;;;;;;86.67;42.37;;;2.20;99.90;;;-143.32;100.00;97718.66;4864867;29;20885;-90
2020/12/09 00:55:09;;;;;;;75.40;38.90;;;2.20;99.90;;;-143.32;100.00;97681.84;4864679;29;20486;-93
2020/12/09 00:57:38;;;;;;;83.80;42.50;;;2.40;99.90;;;-143.32;100.00;97647.06;4864795;29;20454;-92
2020/12/09 01:00:07;;;;;;;74.97;39.40;;;2.50;99.90;;;-143.32;100.00;97667.50;4864548;29;20911;-91
2020/12/09 01:02:34;;;;;;;77.13;39.97;;;2.60;99.90;;;-143.32;100.00;97698.19;4864501;29;20449;-92
2020/12/09 01:05:00;;;;;;;84.77;42.00;;;2.40;99.90;;;-143.32;100.00;97675.69;4865029;29;20469;-90
2020/12/09 01:07:27;;;;;;;84.80;43.10;;;2.40;99.90;;;-143.32;100.00;97687.97;4864823;29;20446;-92
2020/12/09 01:09:57;;;;;;;84.03;43.87;;;2.30;99.90;;;-143.32;100.00;97661.38;4866223;29;20461;-91
2020/12/09 01:12:27;;;;;;;88.27;41.97;;;2.40;99.90;;;-143.32;100.00;97645.00;4866462;29;20457;-92
2020/12/09 01:14:57;;;;;;;79.80;41.03;;;2.30;99.90;;;-143.32;100.00;97706.38;4865940;29;20434;-91
2020/12/09 01:17:24;;;;;;;87.97;42.90;;;2.30;99.90;;;-143.32;100.00;97659.31;4864457;29;20446;-93
2020/12/09 01:19:51;;;;;;;83.20;41.03;;;2.30;99.90;;;-143.32;100.00;97655.22;4864449;29;20494;-91
2020/12/09 01:22:17;;;;;;;83.00;42.70;;;2.30;99.90;;;-143.32;100.00;97685.94;4865863;29;20930;-92
2020/12/09 01:24:44;;;;;;;81.40;40.93;;;2.40;99.90;;;-143.32;100.00;97636.81;4864615;29;20446;-93
2020/12/09 01:27:12;;;;;;;84.43;40.57;;;2.30;99.90;;;-143.32;100.00;97657.28;4864522;29;20459;-92
2020/12/09 01:29:40;;;;;;;89.30;43.50;;;2.40;99.90;;;-143.32;100.00;97735.03;4865130;29;20526;-91
2020/12/09 01:32:06;;;;;;;91.50;43.93;;;2.40;99.90;;;-143.32;100.00;97661.38;4864134;29;20461;-92
2020/12/09 01:34:33;;;;;;;83.30;41.53;;;2.40;99.90;;;-143.32;100.00;97706.38;4863981;29;20455;-94
2020/12/09 01:37:00;;;;;;;84.23;43.30;;;2.50;99.90;;;-143.32;100.00;97675.69;4864123;29;20438;-92
2020/12/09 01:39:28;;;;;;;87.63;44.30;;;2.40;99.90;;;-143.32;100.00;97681.84;4863947;29;20489;-92
2020/12/09 01:41:57;;;;;;;80.40;41.30;;;2.50;99.90;;;-143.32;100.00;97655.22;4863886;29;21012;-90
2020/12/09 01:44:24;;;;;;;71.43;40.67;;;2.50;99.90;;;-143.32;100.00;97671.59;4863935;29;20835;-92
2020/12/09 01:46:53;;;;;;;77.70;39.63;;;2.50;99.90;;;-143.32;100.00;97677.75;4864013;29;20518;-92
2020/12/09 01:49:19;;;;;;;84.50;41.20;;;2.70;99.90;;;-143.32;100.00;97679.78;4864211;29;20794;-91
2020/12/09 01:51:47;;;;;;;78.90;41.17;;;2.60;99.90;;;-143.32;100.00;97659.31;4862596;29;20466;-94
2020/12/09 01:54:14;;;;;;;73.03;39.30;;;2.60;99.90;;;-143.32;100.00;97657.28;4863737;29;20469;-90
2020/12/09 01:56:41;;;;;;;76.63;41.60;;;2.60;99.90;;;-143.32;100.00;97679.78;4864570;29;20525;-92
2020/12/09 01:59:07;;;;;;;76.07;42.40;;;2.60;99.90;;;-143.32;100.00;97696.16;4864453;29;20490;-91
2020/12/09 02:01:36;;;;;;;76.60;40.20;;;2.60;99.90;;;-143.32;100.00;97651.16;4864114;29;20458;-91
2020/12/09 02:04:02;;;;;;;80.37;42.17;;;2.60;99.90;;;-143.32;100.00;97663.41;4863597;29;20499;-93
2020/12/09 02:06:29;;;;;;;75.63;42.53;;;2.60;99.90;;;-143.32;100.00;97638.88;4864751;29;20465;-95
2020/12/09 02:08:58;;;;;;;71.63;39.67;;;2.60;99.90;;;-143.32;100.00;97667.50;4864618;29;20449;-92
2020/12/09 02:11:24;;;;;;;70.97;37.50;;;2.60;99.90;;;-143.32;100.00;97638.88;4864562;29;20442;-91
2020/12/09 02:13:51;;;;;;;73.53;39.87;;;2.60;99.90;;;-143.32;100.00;97657.28;4864910;29;20466;-92
2020/12/09 02:16:18;;;;;;;77.40;40.63;;;2.80;99.90;;;-143.32;100.00;97657.28;4864680;29;20446;-90
2020/12/09 02:18:46;;;;;;;70.27;38.60;;;2.80;99.90;;;-143.32;100.00;97665.47;4865770;29;20513;-92
2020/12/09 02:21:13;;;;;;;76.10;41.13;;;2.90;99.90;;;-143.32;100.00;97675.69;4866680;29;20518;-92
2020/12/09 02:23:41;;;;;;;69.33;39.90;;;2.80;99.90;;;-143.32;100.00;97642.97;4866885;29;20451;-95
2020/12/09 02:26:08;;;;;;;65.30;36.30;;;2.90;99.90;;;-143.32;100.00;97640.91;4867831;29;20522;-92
2020/12/09 02:28:34;;;;;;;71.37;38.13;;;2.90;99.90;;;-143.32;100.00;97632.72;4866646;29;20460;-93
2020/12/09 02:31:01;;;;;;;69.67;38.20;;;2.90;99.90;;;-143.32;100.00;97683.88;4866686;29;20977;-95
2020/12/09 02:33:28;;;;;;;70.13;37.20;;;2.90;99.90;;;-143.32;100.00;97636.81;4866331;29;20529;-93
2020/12/09 02:35:55;;;;;;;69.60;36.07;;;2.90;99.90;;;-143.32;100.00;97659.31;4866749;29;20507;-92
2020/12/09 02:38:21;;;;;;;70.33;37.23;;;2.80;99.90;;;-143.32;100.00;97634.78;4865218;29;20497;-92
2020/12/09 02:40:49;;;;;;;66.63;34.73;;;3.10;99.90;;;-143.32;100.00;97626.59;4866246;29;20473;-93
2020/12/09 02:43:16;;;;;;;57.77;33.43;;;3.00;99.90;;;-143.32;100.00;97634.78;4866325;29;20826;-91
2020/12/09 02:45:43;;;;;;;64.40;34.50;;;3.10;99.90;;;-143.32;100.00;97651.16;4865049;29;20800;-91
2020/12/09 02:48:09;;;;;;;63.73;34.07;;;3.00;99.90;;;-143.32;100.00;97687.97;4865044;29;20470;-91
2020/12/09 02:50:36;;;;;;;57.53;32.30;;;3.00;99.90;;;-143.32;100.00;97657.28;4863807;29;20458;-92
2020/12/09 02:53:03;;;;;;;59.57;33.30;;;3.10;99.90;;;-143.32;100.00;97653.19;4864035;29;20442;-93
2020/12/09 02:55:30;;;;;;;59.07;32.53;;;3.00;99.90;;;-143.32;100.00;97640.91;4864900;29;20458;-91
2020/12/09 02:57:57;;;;;;;67.13;34.00;;;3.20;99.90;;;-143.32;100.00;97702.28;4864558;29;20507;-96
2020/12/09 03:00:24;;;;;;;57.63;33.00;;;3.00;99.90;;;-143.32;100.00;97651.16;4863940;29;20490;-92
2020/12/09 03:02:51;;;;;;;58.03;34.00;;;3.00;99.90;;;-143.32;100.00;97634.78;4864196;29;20458;-95
2020/12/09 03:05:18;;;;;;;59.27;32.63;;;2.90;99.90;;;-143.32;100.00;97692.06;4864982;29;20511;-92
2020/12/09 03:07:45;;;;;;;60.83;34.30;;;2.90;99.90;;;-143.32;100.00;97591.81;4863832;29;20844;-94
2020/12/09 03:10:12;;;;;;;65.50;32.70;;;2.90;99.90;;;-143.32;100.00;97665.47;4864343;29;20459;-91
2020/12/09 03:12:38;;;;;;;62.30;33.63;;;2.90;99.90;;;-143.32;100.00;97626.59;4865259;29;20454;-93
2020/12/09 03:15:06;;;;;;;54.77;31.30;;;2.90;99.90;;;-143.32;100.00;97685.94;4863991;29;20487;-95
2020/12/09 03:17:33;;;;;;;61.93;30.63;;;2.90;99.90;;;-143.32;100.00;97651.16;4863993;29;20840;-92
2020/12/09 03:19:59;;;;;;;57.80;32.03;;;2.90;99.90;;;-143.32;100.00;97667.50;4863407;29;20997;-92
2020/12/09 03:22:26;;;;;;;58.10;32.40;;;2.80;99.90;;;-143.32;100.00;97653.19;4864690;29;20459;-92
2020/12/09 03:28:35;;;;;;;57.87;32.40;;;2.90;99.90;;;-143.32;100.00;97669.56;4863386;29;20422;-92
2020/12/09 03:31:05;;;;;;;60.93;33.30;;;2.90;99.90;;;-143.32;100.00;97604.09;4863041;29;20826;-94
2020/12/09 03:33:33;;;;;;;60.13;31.87;;;2.80;99.90;;;-143.32;100.00;97665.47;4864265;29;20454;-94
2020/12/09 03:35:59;;;;;;;60.47;32.07;;;2.90;99.90;;;-143.32;100.00;97659.31;4863742;29;20445;-91
2020/12/09 03:38:26;;;;;;;61.30;33.10;;;2.90;99.90;;;-143.32;100.00;97679.78;4863415;29;20458;-95
2020/12/09 03:40:53;;;;;;;61.97;32.13;;;2.90;99.90;;;-143.32;100.00;97706.38;4863526;29;20462;-92
2020/12/09 03:43:20;;;;;;;56.87;31.83;;;2.90;99.90;;;-143.32;100.00;97655.22;4864226;29;20502;-93
2020/12/09 03:45:47;;;;;;;57.33;32.40;;;2.80;99.90;;;-143.32;100.00;97618.41;4863088;29;20475;-93
2020/12/09 03:48:15;;;;;;;56.27;32.30;;;2.90;99.90;;;-143.32;100.00;97645.00;4864408;29;20968;-91
2020/12/09 03:50:41;;;;;;;73.80;33.50;;;2.90;99.90;;;-143.32;100.00;97653.19;4863971;29;20514;-93
2020/12/09 03:53:08;;;;;;;61.87;31.67;;;3.00;99.90;;;-143.32;100.00;97696.16;4863629;29;20462;-93
2020/12/09 03:55:35;;;;;;;56.93;31.80;;;3.00;99.90;;;-143.32;100.00;97640.91;4863327;29;20455;-93
2020/12/09 03:58:02;;;;;;;56.43;32.93;;;2.80;99.90;;;-143.32;100.00;97663.41;4863336;29;20465;-94
2020/12/09 04:00:29;;;;;;;61.13;32.97;;;3.00;99.90;;;-143.32;100.00;97638.88;4863010;29;20497;-93
2020/12/09 04:02:57;;;;;;;53.80;31.63;;;3.00;99.90;;;-143.32;100.00;97632.72;4863032;29;20458;-92
2020/12/09 04:05:24;;;;;;;54.00;30.17;;;3.00;99.90;;;-143.32;100.00;97651.16;4863247;29;20466;-94
2020/12/09 04:07:51;;;;;;;52.73;30.60;;;3.10;99.90;;;-143.32;100.00;97647.06;4862531;29;20805;-92
2020/12/09 04:10:19;;;;;;;56.90;32.20;;;3.10;99.90;;;-143.32;100.00;97630.69;4862808;29;20454;-90
2020/12/09 04:12:46;;;;;;;60.00;30.97;;;3.00;99.90;;;-143.32;100.00;97630.69;4863076;29;20458;-94
2020/12/09 04:15:13;;;;;;;51.50;29.40;;;3.10;99.90;;;-143.32;100.00;97653.19;4862043;29;20812;-93
2020/12/09 04:17:40;;;;;;;54.80;29.93;;;3.10;99.90;;;-143.32;100.00;97698.19;4863042;29;20454;-93
2020/12/09 04:20:08;;;;;;;52.27;28.50;;;3.00;99.90;;;-143.32;100.00;97630.69;4862841;29;20886;-92
2020/12/09 04:22:36;;;;;;;52.43;29.03;;;2.90;99.90;;;-143.32;100.00;97655.22;4862713;29;20462;-93
2020/12/09 04:25:04;;;;;;;64.57;32.17;;;2.90;99.90;;;-143.32;100.00;97585.69;4862689;29;20958;-92
2020/12/09 04:27:30;;;;;;;55.00;31.87;;;2.90;99.90;;;-143.32;100.00;97659.31;4862886;29;20451;-94
2020/12/09 04:29:57;;;;;;;52.43;30.40;;;3.00;99.90;;;-143.32;100.00;97679.78;4863620;29;20458;-91
2020/12/09 04:32:24;;;;;;;54.90;30.83;;;2.90;99.90;;;-143.32;100.00;97649.09;4862909;29;20462;-93
2020/12/09 04:34:56;;;;;;;62.40;30.77;;;2.90;99.90;;;-143.32;100.00;97669.56;4863003;29;20465;-92
2020/12/09 04:37:25;;;;;;;55.87;31.00;;;3.00;99.90;;;-143.32;100.00;97630.69;4863356;29;20510;-92
2020/12/09 04:39:53;;;;;;;68.73;33.90;;;2.90;99.90;;;-143.32;100.00;97651.16;4862618;29;20493;-94
2020/12/09 04:42:21;;;;;;;58.40;32.97;;;2.90;99.90;;;-143.32;100.00;97663.41;4862574;29;20447;-92
2020/12/09 04:44:49;;;;;;;62.00;32.60;;;2.90;99.90;;;-143.32;100.00;97692.06;4863016;29;20450;-93
2020/12/09 08:22:30;;;;;;;120.97;48.53;;;3.40;99.90;;;-143.32;100.00;97616.38;5290268;23;20519;-93
2020/12/09 08:28:28;;;;;;;136.13;56.90;;;3.50;99.90;;;-143.32;100.00;97657.28;5305679;23;20501;-94
2020/12/09 08:31:50;;;;;;;143.07;55.50;;;3.50;99.90;;;-143.32;100.00;97614.31;4872763;29;20454;-91
2020/12/09 09:00:43;;;;;;;178.30;65.60;;;3.00;99.90;;;-143.32;100.00;97589.75;4875145;29;20493;-90
2020/12/09 12:39:51;;;;;;;79.83;41.77;;;3.40;99.90;;;-143.32;99.81;97616.38;5577486;23;20927;-87
2020/12/09 13:20:30;;;;;;;102.40;48.97;;;2.80;99.90;;;-143.32;100.00;97655.22;5777193;23;20270;-90
2020/12/09 13:59:14;;;;;;;93.47;47.30;;;3.10;99.90;;;-143.32;100.00;97665.47;4862590;29;20434;-89
2020/12/09 14:05:29;;;;;;;80.80;42.70;;;3.00;99.90;;;-143.32;100.00;97655.22;4855886;29;20457;-88
2020/12/09 14:19:55;;;;;;;83.83;42.20;;;2.80;99.90;;;-143.32;100.00;97694.13;4814706;29;20528;-91
2020/12/09 14:53:09;;;;;;;;;;;;;;;;;;;;;
2020/12/09 14:56:32;;;;;;;97.13;46.43;;;2.50;99.90;;;-143.32;100.00;97665.47;4794186;30;20473;-91
2020/12/09 15:02:44;;;;;;;91.40;45.37;;;2.50;99.90;;;-143.32;100.00;97683.88;4801123;30;20434;-91
2020/12/09 15:05:23;;;;;;;99.80;50.17;;;2.30;99.90;;;-143.32;100.00;97675.69;4857751;29;20462;-92
2020/12/09 15:08:10;;;;;;;90.80;46.20;;;2.40;99.90;;;-143.32;100.00;97679.78;4878038;29;20430;-93
2020/12/09 15:10:42;;;;;;;91.97;46.37;;;2.50;99.90;;;-143.32;100.00;97669.56;4876652;29;20542;-92
2020/12/09 15:13:11;;;;;;;96.27;46.50;;;2.30;99.90;;;-143.32;100.00;97651.16;4875073;29;20442;-92
2020/12/09 15:15:38;;;;;;;101.33;48.47;;;2.30;99.90;;;-143.32;100.00;97704.34;4875265;29;20446;-89
2020/12/09 15:18:10;;;;;;;106.20;51.67;;;2.30;99.90;;;-143.32;100.00;97663.41;4876271;29;20447;-92
2020/12/09 15:24:46;;;;;;;108.63;50.47;;;2.30;99.90;;;-143.32;100.00;97704.34;4881965;29;20425;-92
2020/12/09 15:30:05;;;;;;;104.90;56.00;;;2.20;99.90;;;-143.32;100.00;97681.84;4861266;29;20490;-92
2020/12/09 15:33:07;;;;;;;104.30;51.17;;;2.10;99.90;;;-143.32;100.00;97696.16;4864011;29;20194;-92
2020/12/09 15:39:31;;;;;;;102.40;46.67;;;2.00;99.90;;;-143.32;100.00;97630.69;4866305;29;20435;-93
2020/12/09 15:48:57;;;;;;;105.27;48.73;;;2.00;99.90;;;-143.32;100.00;97692.06;4865305;29;20460;-92
2020/12/09 15:51:27;;;;;;;107.50;49.47;;;2.00;99.90;;;-143.32;100.00;97704.34;4837710;29;20876;-91
2020/12/09 15:53:56;;;;;;;111.77;49.57;;;1.90;99.90;;;-143.32;100.00;97700.25;4853174;29;20931;-93
2020/12/09 15:56:23;;;;;;;110.30;49.40;;;1.90;99.90;;;-143.32;100.00;97690.03;4853208;29;20470;-93
2020/12/09 15:58:50;;;;;;;112.27;48.77;;;1.90;99.90;;;-143.32;100.00;97683.88;4852385;29;20475;-92
2020/12/09 16:01:17;;;;;;;108.03;49.90;;;2.10;99.90;;;-143.32;100.00;97698.19;4854490;29;20501;-91
2020/12/09 16:03:48;;;;;;;116.77;50.40;;;1.90;99.90;;;-143.32;100.00;97669.56;4858112;29;20443;-92
2020/12/09 16:06:15;;;;;;;106.27;48.67;;;1.90;99.90;;;-143.32;100.00;97712.53;4856074;29;20448;-92
2020/12/09 16:08:42;;;;;;;101.33;49.23;;;1.90;99.90;;;-143.32;100.00;97728.88;4855178;29;20459;-91
2020/12/09 16:11:09;;;;;;;107.37;50.40;;;1.90;99.90;;;-143.32;100.00;97673.66;4852494;29;20456;-91
2020/12/09 16:13:36;;;;;;;111.67;50.10;;;1.80;99.90;;;-143.32;100.00;97694.13;4854371;29;20491;-92
2020/12/09 16:16:12;;;;;;;111.80;48.67;;;1.80;99.90;;;-143.32;100.00;97718.66;4852403;29;20443;-91
2020/12/09 16:27:05;;;;;;;115.03;51.43;;;1.80;99.90;;;-143.32;100.00;97679.78;4850827;29;20528;-90
2020/12/09 16:29:48;;;;;;;101.33;46.87;;;1.90;99.90;;;-143.32;100.00;97661.38;4835908;29;20467;-93
2020/12/09 16:32:17;;;;;;;107.20;49.47;;;1.90;99.90;;;-143.32;100.00;97712.53;4844026;29;20478;-93
2020/12/09 16:35:28;;;;;;;98.73;48.00;;;1.90;99.90;;;-143.32;100.00;97677.75;4852875;29;20474;-91
2020/12/09 16:37:55;;;;;;;97.70;45.93;;;1.80;99.90;;;-143.32;100.00;97683.88;4849756;29;20459;-91
2020/12/09 16:40:27;;;;;;;102.33;46.27;;;1.90;99.90;;;-143.32;100.00;97692.06;4851235;29;20495;-92
2020/12/09 16:42:56;;;;;;;116.07;46.63;;;1.80;99.90;;;-143.32;100.00;97687.97;4851659;29;20471;-92
2020/12/09 16:45:23;;;;;;;107.43;47.73;;;1.70;99.90;;;-143.32;100.00;97718.66;4853624;29;20451;-91
2020/12/09 16:54:03;;;;;;;113.40;46.10;;;1.70;99.90;;;-143.32;100.00;97735.03;4919166;23;20872;-92
2020/12/09 16:56:30;;;;;;;99.00;46.70;;;1.70;99.90;;;-143.32;100.00;97698.19;4862822;29;20482;-87
2020/12/09 16:58:57;;;;;;;111.73;48.13;;;1.70;99.90;;;-143.32;100.00;97702.28;4879096;29;20453;-86
2020/12/09 21:29:13;;;;;;;108.27;44.87;;;-0.70;99.90;;;-143.32;100.00;97827.09;5557394;23;20502;-92
